Time;durP1;ratioP1;P1;durP2;ratioP2;P2;SDS_P1;SDS_P2;PMS_P1;PMS_P2;Temp;Humidity;BMP_temperature;BMP_pressure;BME280_temperature;BME280_humidity;BME280_pressure;Samples;Min_cycle;Max_cycle;Signal;HPM_P1;HPM_P2
2021/01/16 00:01:37;;;;;;;27.67;11.50;;;0.10;99.70;;;;;;5031001;28;20502;-68
2021/01/16 00:04:03;;;;;;;25.63;11.73;;;0.00;99.70;;;;;;5030971;28;20476;-69
2021/01/16 00:06:29;;;;;;;25.93;11.60;;;0.00;99.70;;;;;;5030819;28;20471;-68
2021/01/16 00:08:56;;;;;;;27.00;12.10;;;0.20;99.70;;;;;;5030430;28;20453;-69
2021/01/16 00:11:22;;;;;;;29.43;11.77;;;0.20;99.70;;;;;;5030768;28;20445;-68
2021/01/16 00:13:48;;;;;;;25.50;11.57;;;0.20;99.70;;;;;;5030992;28;20444;-69
2021/01/16 00:16:15;;;;;;;26.03;11.67;;;0.40;99.70;;;;;;5030683;28;20471;-68
2021/01/16 00:18:42;;;;;;;26.90;12.50;;;0.20;99.70;;;;;;5030425;28;20441;-68
2021/01/16 00:21:08;;;;;;;26.10;11.77;;;0.70;99.70;;;;;;5030720;28;20479;-68
2021/01/16 00:23:34;;;;;;;25.63;11.77;;;0.40;99.70;;;;;;5030655;28;20467;-69
2021/01/16 00:26:00;;;;;;;26.17;11.37;;;0.30;99.70;;;;;;5030453;28;20475;-69
2021/01/16 00:28:29;;;;;;;27.40;12.03;;;0.30;99.70;;;;;;5030188;28;20507;-68
2021/01/16 00:30:56;;;;;;;26.80;11.90;;;0.20;99.70;;;;;;5030029;28;20476;-69
2021/01/16 00:33:25;;;;;;;28.00;12.00;;;0.20;99.70;;;;;;5030649;28;20748;-68
2021/01/16 00:35:53;;;;;;;31.13;11.90;;;0.10;99.70;;;;;;5030573;28;20492;-70
2021/01/16 00:38:19;;;;;;;24.10;10.70;;;0.10;99.70;;;;;;5030153;28;20451;-70
2021/01/16 00:40:45;;;;;;;29.73;12.10;;;0.30;99.70;;;;;;5030295;28;20480;-69
2021/01/16 00:43:15;;;;;;;27.23;12.53;;;0.20;99.70;;;;;;5030810;28;20452;-69
2021/01/16 00:45:42;;;;;;;28.87;12.33;;;0.40;99.70;;;;;;5030468;28;20855;-68
2021/01/16 00:48:10;;;;;;;25.07;11.20;;;0.20;99.70;;;;;;5030050;28;20437;-68
2021/01/16 00:50:37;;;;;;;32.17;12.50;;;0.20;99.70;;;;;;5030538;28;20440;-69
2021/01/16 00:53:04;;;;;;;28.90;11.70;;;0.20;99.70;;;;;;5031711;28;20452;-69
2021/01/16 00:55:30;;;;;;;30.20;12.50;;;0.30;99.70;;;;;;5030208;28;20476;-69
2021/01/16 00:57:56;;;;;;;26.80;11.93;;;0.20;99.70;;;;;;5029910;28;20445;-69
2021/01/16 01:00:27;;;;;;;28.57;12.60;;;0.10;99.70;;;;;;5030235;28;20481;-69
2021/01/16 01:02:54;;;;;;;32.70;12.70;;;0.20;99.70;;;;;;5030288;28;20880;-70
2021/01/16 01:05:24;;;;;;;28.53;12.30;;;0.20;99.70;;;;;;5030233;28;20464;-68
2021/01/16 01:07:52;;;;;;;35.33;13.70;;;0.20;99.70;;;;;;5029744;28;20498;-69
2021/01/16 01:10:24;;;;;;;29.23;12.40;;;0.20;99.70;;;;;;5030258;28;20507;-69
2021/01/16 01:12:50;;;;;;;26.57;12.07;;;0.30;99.70;;;;;;5030184;28;20510;-70
2021/01/16 01:15:16;;;;;;;27.90;12.13;;;0.30;99.70;;;;;;5030075;28;20856;-70
2021/01/16 01:17:42;;;;;;;31.60;12.70;;;0.50;99.70;;;;;;5029763;28;20483;-69
2021/01/16 01:20:09;;;;;;;33.77;12.63;;;0.30;99.70;;;;;;5030295;28;20487;-69
2021/01/16 01:22:37;;;;;;;30.10;12.20;;;0.40;99.70;;;;;;5030013;28;20445;-69
2021/01/16 01:25:05;;;;;;;25.07;11.07;;;0.20;99.70;;;;;;5030494;28;20468;-68
2021/01/16 01:27:31;;;;;;;31.27;13.40;;;0.30;99.70;;;;;;5029687;28;20440;-69
2021/01/16 01:29:59;;;;;;;38.47;14.17;;;0.30;99.70;;;;;;5030173;28;20445;-68
2021/01/16 01:32:25;;;;;;;33.73;13.40;;;0.30;99.70;;;;;;5029490;28;20535;-69
2021/01/16 01:34:51;;;;;;;31.50;13.03;;;0.30;99.70;;;;;;5029966;28;20487;-69
2021/01/16 01:37:17;;;;;;;32.30;13.33;;;0.20;99.70;;;;;;5029442;28;20447;-68
2021/01/16 01:39:43;;;;;;;30.60;14.27;;;0.20;99.70;;;;;;5029886;28;20487;-68
2021/01/16 01:42:15;;;;;;;36.03;15.23;;;0.00;99.70;;;;;;5029696;28;20451;-68
2021/01/16 01:44:41;;;;;;;31.37;12.70;;;0.10;99.70;;;;;;5029763;28;20519;-69
2021/01/16 01:47:09;;;;;;;27.67;12.63;;;0.10;99.70;;;;;;5029313;28;20444;-68
2021/01/16 01:49:36;;;;;;;32.77;12.70;;;0.10;99.70;;;;;;5029742;28;20448;-69
2021/01/16 01:52:02;;;;;;;30.50;11.77;;;0.00;99.70;;;;;;5029776;28;20495;-68
2021/01/16 01:54:29;;;;;;;29.93;12.80;;;0.00;99.70;;;;;;5029527;28;20522;-69
2021/01/16 01:56:58;;;;;;;31.60;12.80;;;0.00;99.70;;;;;;5029226;28;20452;-69
2021/01/16 01:59:26;;;;;;;32.30;13.33;;;0.30;99.70;;;;;;5031520;28;20507;-69
2021/01/16 02:01:55;;;;;;;31.70;12.10;;;0.20;99.70;;;;;;5033272;28;20869;-68
2021/01/16 02:04:23;;;;;;;27.50;11.77;;;0.10;99.70;;;;;;5033059;28;20444;-69
2021/01/16 02:06:49;;;;;;;26.33;11.53;;;0.00;99.70;;;;;;5032699;28;20502;-68
2021/01/16 02:09:15;;;;;;;30.07;12.03;;;-0.10;99.70;;;;;;5033160;28;20445;-69
2021/01/16 02:11:41;;;;;;;27.30;11.80;;;0.10;99.70;;;;;;5033064;28;20502;-69
2021/01/16 02:14:07;;;;;;;30.27;11.90;;;0.10;99.70;;;;;;5032905;28;20456;-69
2021/01/16 02:16:39;;;;;;;26.20;12.10;;;0.10;99.70;;;;;;5033127;28;20441;-70
2021/01/16 02:19:06;;;;;;;27.00;11.73;;;0.10;99.70;;;;;;5032468;28;20441;-70
2021/01/16 02:21:36;;;;;;;28.70;11.60;;;0.00;99.70;;;;;;5032831;28;20444;-68
2021/01/16 02:24:09;;;;;;;29.90;12.30;;;0.10;99.70;;;;;;5033037;28;20527;-69
2021/01/16 02:26:59;;;;;;;27.77;11.10;;;0.10;99.70;;;;;;5032743;28;20452;-69
2021/01/16 02:29:27;;;;;;;28.37;11.37;;;0.10;99.70;;;;;;5032687;28;20498;-68
2021/01/16 02:31:58;;;;;;;28.83;12.93;;;0.20;99.70;;;;;;5032300;28;20942;-68
2021/01/16 02:34:28;;;;;;;27.70;11.90;;;0.40;99.70;;;;;;5032441;28;20449;-69
2021/01/16 02:37:23;;;;;;;27.73;12.23;;;0.40;99.70;;;;;;5032241;28;20464;-69
2021/01/16 02:40:01;;;;;;;27.13;11.20;;;0.20;99.70;;;;;;5026682;28;20484;-68
2021/01/16 02:42:37;;;;;;;27.20;11.77;;;0.10;99.70;;;;;;5032345;28;20479;-68
2021/01/16 02:45:09;;;;;;;28.53;11.10;;;0.00;99.70;;;;;;5032884;28;20471;-71
2021/01/16 02:47:46;;;;;;;31.37;12.03;;;0.00;99.70;;;;;;5032017;28;20449;-68
2021/01/16 02:50:19;;;;;;;30.00;13.13;;;0.00;99.70;;;;;;5032413;28;20956;-69
2021/01/16 02:52:47;;;;;;;33.60;13.07;;;0.10;99.70;;;;;;5032129;28;20460;-68
2021/01/16 02:55:14;;;;;;;29.87;12.43;;;0.10;99.70;;;;;;5032355;28;20482;-69
2021/01/16 02:57:41;;;;;;;27.13;11.73;;;0.10;99.70;;;;;;5031651;28;20456;-70
2021/01/16 03:00:10;;;;;;;30.90;12.90;;;0.50;99.70;;;;;;5032028;28;20484;-70
2021/01/16 03:02:37;;;;;;;30.40;11.97;;;0.40;99.70;;;;;;5032122;28;20452;-69
2021/01/16 03:05:04;;;;;;;28.77;11.77;;;0.20;99.70;;;;;;5031956;28;20480;-70
2021/01/16 03:07:33;;;;;;;29.70;11.90;;;0.20;99.70;;;;;;5031643;28;20503;-68
2021/01/16 03:10:04;;;;;;;32.57;12.20;;;0.10;99.70;;;;;;5031779;28;20441;-68
2021/01/16 03:12:31;;;;;;;31.70;12.80;;;0.00;99.70;;;;;;5031863;28;20449;-69
2021/01/16 03:15:01;;;;;;;25.13;11.33;;;0.10;99.70;;;;;;5031722;28;20473;-69
2021/01/16 03:17:44;;;;;;;25.00;10.83;;;0.00;99.70;;;;;;5031411;28;20479;-69
2021/01/16 03:20:12;;;;;;;28.20;11.70;;;0.00;99.70;;;;;;5031541;28;20901;-68
2021/01/16 03:22:38;;;;;;;28.93;12.30;;;0.10;99.70;;;;;;5031839;28;20796;-68
2021/01/16 03:25:05;;;;;;;32.90;12.30;;;0.00;99.70;;;;;;5031505;28;20465;-69
2021/01/16 03:27:32;;;;;;;30.40;12.63;;;0.00;99.70;;;;;;5023291;28;20449;-69
2021/01/16 03:29:58;;;;;;;31.43;12.73;;;0.00;99.70;;;;;;5031582;28;20451;-69
2021/01/16 03:32:25;;;;;;;31.83;12.80;;;0.00;99.70;;;;;;5030798;28;20456;-69
2021/01/16 03:34:52;;;;;;;29.50;11.80;;;0.10;99.70;;;;;;5031471;28;20464;-69
2021/01/16 03:37:19;;;;;;;33.47;12.97;;;0.10;99.70;;;;;;5031409;28;20476;-69
2021/01/16 03:39:45;;;;;;;28.43;12.10;;;0.10;99.70;;;;;;5031307;28;20484;-69
2021/01/16 03:42:11;;;;;;;31.43;13.20;;;0.00;99.70;;;;;;5031669;28;20440;-68
2021/01/16 03:44:38;;;;;;;31.77;12.30;;;0.00;99.70;;;;;;5031314;28;20473;-68
2021/01/16 03:47:05;;;;;;;31.83;12.10;;;0.10;99.70;;;;;;5031249;28;20445;-69
2021/01/16 03:49:31;;;;;;;30.70;13.23;;;0.10;99.70;;;;;;5022931;28;20447;-69
2021/01/16 03:51:59;;;;;;;32.50;13.73;;;0.20;99.70;;;;;;5031161;28;20456;-68
2021/01/16 03:54:25;;;;;;;31.70;12.97;;;0.20;99.70;;;;;;5030797;28;20487;-70
2021/01/16 03:56:51;;;;;;;33.20;12.70;;;0.10;99.70;;;;;;5030637;28;20937;-68
2021/01/16 03:59:17;;;;;;;33.40;12.50;;;0.10;99.70;;;;;;5030849;28;20455;-69
2021/01/16 04:01:45;;;;;;;33.93;12.73;;;0.10;99.70;;;;;;5031061;28;20448;-68
2021/01/16 04:04:11;;;;;;;30.57;13.00;;;0.10;99.70;;;;;;5030723;28;20448;-69
2021/01/16 04:06:38;;;;;;;32.50;13.30;;;0.10;99.70;;;;;;5030970;28;20441;-69
2021/01/16 04:09:05;;;;;;;33.27;13.37;;;0.00;99.70;;;;;;5030530;28;20460;-69
2021/01/16 04:11:31;;;;;;;32.40;13.20;;;0.00;99.70;;;;;;5030831;28;20456;-68
2021/01/16 04:13:57;;;;;;;40.30;14.90;;;0.00;99.70;;;;;;5030718;28;20824;-70
2021/01/16 04:16:26;;;;;;;36.70;14.03;;;0.00;99.70;;;;;;5030710;28;20472;-68
2021/01/16 04:18:52;;;;;;;33.70;13.27;;;0.00;99.70;;;;;;5030306;28;20445;-68
2021/01/16 04:21:19;;;;;;;33.10;13.57;;;0.00;99.70;;;;;;5030140;28;20855;-68
2021/01/16 04:23:45;;;;;;;35.83;14.17;;;0.00;99.70;;;;;;5030630;28;20813;-69
2021/01/16 04:26:12;;;;;;;35.23;14.30;;;0.10;99.70;;;;;;5030687;28;20457;-68
2021/01/16 04:28:38;;;;;;;36.10;13.50;;;0.00;99.70;;;;;;5030219;28;20440;-68
2021/01/16 04:31:05;;;;;;;30.50;12.13;;;0.00;99.70;;;;;;5029835;28;20750;-68
2021/01/16 04:33:31;;;;;;;31.67;13.20;;;0.30;99.70;;;;;;5022361;28;20453;-69
2021/01/16 04:35:57;;;;;;;37.50;14.53;;;0.20;99.70;;;;;;5030438;28;20460;-69
2021/01/16 04:38:24;;;;;;;32.77;13.47;;;0.30;99.70;;;;;;5030128;28;20456;-68
2021/01/16 04:40:50;;;;;;;36.37;14.10;;;0.30;99.70;;;;;;5030436;28;20488;-70
2021/01/16 04:43:17;;;;;;;37.10;14.33;;;0.20;99.70;;;;;;5030683;28;20452;-68
2021/01/16 04:45:46;;;;;;;35.80;14.07;;;0.10;99.70;;;;;;5030338;28;20461;-69
2021/01/16 04:48:14;;;;;;;36.20;14.10;;;0.10;99.70;;;;;;5029968;28;20867;-70
2021/01/16 04:50:42;;;;;;;35.77;14.00;;;0.10;99.70;;;;;;5030447;28;20445;-69
2021/01/16 04:53:09;;;;;;;33.90;13.80;;;0.00;99.70;;;;;;5030466;28;20816;-69
2021/01/16 04:55:37;;;;;;;34.73;14.00;;;0.00;99.70;;;;;;5030352;28;20480;-69
2021/01/16 04:58:05;;;;;;;38.93;14.10;;;0.00;99.70;;;;;;5030018;28;20506;-68
2021/01/16 05:00:35;;;;;;;36.47;13.90;;;0.00;99.70;;;;;;5029980;28;20484;-69
2021/01/16 05:03:06;;;;;;;35.03;13.87;;;0.10;99.70;;;;;;5030118;28;20451;-68
2021/01/16 05:05:33;;;;;;;40.80;15.53;;;0.10;99.70;;;;;;5022102;28;20469;-70
2021/01/16 05:08:01;;;;;;;40.03;15.30;;;0.20;99.70;;;;;;5029746;28;20499;-69
2021/01/16 05:10:35;;;;;;;35.50;14.70;;;0.10;99.70;;;;;;5030017;28;20934;-69
2021/01/16 05:13:10;;;;;;;35.90;13.53;;;0.20;99.70;;;;;;5030029;28;21005;-69
2021/01/16 05:15:39;;;;;;;34.73;14.27;;;0.10;99.70;;;;;;5022455;28;21023;-69
2021/01/16 05:18:07;;;;;;;41.90;14.80;;;0.10;99.70;;;;;;5029666;28;20520;-69
2021/01/16 05:20:34;;;;;;;35.90;13.93;;;0.00;99.70;;;;;;5029811;28;20855;-69
2021/01/16 05:23:12;;;;;;;35.17;14.87;;;0.10;99.70;;;;;;5029896;28;20449;-69
2021/01/16 05:25:40;;;;;;;37.70;14.57;;;0.00;99.70;;;;;;5022733;28;20884;-69
2021/01/16 05:28:08;;;;;;;38.70;14.60;;;0.10;99.70;;;;;;5029577;28;20448;-68
2021/01/16 05:30:51;;;;;;;41.00;15.67;;;0.10;99.70;;;;;;5029833;28;20467;-69
2021/01/16 05:33:18;;;;;;;35.73;14.90;;;0.10;99.70;;;;;;5030347;28;20448;-70
2021/01/16 05:35:45;;;;;;;36.07;14.03;;;0.00;99.70;;;;;;5033651;28;20468;-69
2021/01/16 05:38:13;;;;;;;35.53;13.90;;;0.10;99.70;;;;;;5033345;28;20445;-70
2021/01/16 05:40:39;;;;;;;36.33;14.10;;;0.10;99.70;;;;;;5033492;28;21215;-70
2021/01/16 05:43:06;;;;;;;37.50;14.53;;;0.10;99.70;;;;;;5033631;28;20452;-69
2021/01/16 05:45:34;;;;;;;38.37;15.60;;;0.00;99.70;;;;;;5033385;28;20560;-68
2021/01/16 05:48:02;;;;;;;40.07;14.33;;;0.00;99.70;;;;;;5033059;28;20865;-68
2021/01/16 05:50:29;;;;;;;37.57;15.30;;;0.00;99.70;;;;;;5033355;28;20441;-68
2021/01/16 05:52:56;;;;;;;37.43;14.73;;;0.00;99.70;;;;;;5033361;28;20917;-69
2021/01/16 05:55:23;;;;;;;37.63;14.87;;;0.30;99.70;;;;;;5033386;28;20472;-68
2021/01/16 05:58:00;;;;;;;37.23;14.30;;;0.20;99.70;;;;;;5033006;28;20447;-71
2021/01/16 06:00:26;;;;;;;38.97;15.63;;;0.10;99.70;;;;;;5033316;28;20475;-69
2021/01/16 06:02:52;;;;;;;36.90;14.23;;;0.00;99.70;;;;;;5033362;28;20447;-68
2021/01/16 06:05:24;;;;;;;37.83;14.67;;;0.00;99.70;;;;;;5033231;28;20641;-68
2021/01/16 06:07:52;;;;;;;36.70;14.03;;;0.00;99.70;;;;;;5032993;28;20437;-68
2021/01/16 06:10:20;;;;;;;36.70;14.20;;;-0.10;99.70;;;;;;5033334;28;20992;-68
2021/01/16 06:12:47;;;;;;;32.13;13.70;;;0.10;99.70;;;;;;5033373;28;20452;-69
2021/01/16 06:15:16;;;;;;;35.23;13.80;;;0.10;99.70;;;;;;5033248;28;20472;-70
2021/01/16 06:17:45;;;;;;;31.20;12.60;;;0.00;99.70;;;;;;5032841;28;20451;-70
2021/01/16 06:20:13;;;;;;;37.47;13.73;;;0.10;99.70;;;;;;5033166;28;21005;-68
2021/01/16 06:22:42;;;;;;;33.77;13.90;;;0.10;99.70;;;;;;5032975;28;20998;-68
2021/01/16 06:25:20;;;;;;;33.03;14.83;;;0.00;99.70;;;;;;5032720;28;20940;-69
2021/01/16 06:27:48;;;;;;;36.60;14.10;;;0.00;99.70;;;;;;5032310;28;20444;-69
2021/01/16 06:30:17;;;;;;;31.20;13.20;;;0.00;99.70;;;;;;5032779;28;20440;-70
2021/01/16 06:32:49;;;;;;;32.90;13.90;;;0.00;99.70;;;;;;5031865;28;20448;-68
2021/01/16 06:35:17;;;;;;;34.03;14.17;;;-0.10;99.70;;;;;;5032639;28;20460;-68
2021/01/16 06:37:45;;;;;;;33.67;14.30;;;-0.10;99.70;;;;;;5032162;28;20451;-68
2021/01/16 06:40:13;;;;;;;34.70;13.37;;;-0.10;99.70;;;;;;5032517;28;20488;-68
2021/01/16 06:42:40;;;;;;;34.10;14.00;;;0.00;99.70;;;;;;5032508;28;20444;-68
2021/01/16 06:45:08;;;;;;;37.60;13.70;;;0.00;99.70;;;;;;5032365;28;20470;-67
2021/01/16 06:47:35;;;;;;;35.67;13.27;;;0.00;99.70;;;;;;5024268;28;20440;-68
2021/01/16 06:50:02;;;;;;;32.70;12.87;;;0.10;99.70;;;;;;5032432;28;20813;-69
2021/01/16 06:52:33;;;;;;;33.83;12.97;;;0.10;99.70;;;;;;5033561;28;20491;-70
2021/01/16 06:55:03;;;;;;;38.20;13.53;;;0.20;99.70;;;;;;5032396;28;20472;-68
2021/01/16 06:57:30;;;;;;;38.80;14.63;;;0.20;99.70;;;;;;5031929;28;20832;-68
2021/01/16 07:00:05;;;;;;;33.23;14.00;;;0.00;99.70;;;;;;5032028;28;21096;-68
2021/01/16 07:02:32;;;;;;;40.90;14.80;;;0.10;99.70;;;;;;5032118;28;20451;-70
2021/01/16 07:05:00;;;;;;;37.47;14.90;;;0.20;99.70;;;;;;5032341;28;20772;-68
2021/01/16 07:07:34;;;;;;;36.67;14.37;;;0.00;99.70;;;;;;5031656;28;20479;-69
2021/01/16 07:10:06;;;;;;;34.73;14.87;;;0.00;99.70;;;;;;5032075;28;20444;-68
2021/01/16 07:12:33;;;;;;;32.10;13.23;;;0.10;99.70;;;;;;5023940;28;20459;-68
2021/01/16 07:15:00;;;;;;;38.47;15.40;;;0.10;99.70;;;;;;5031765;28;20985;-70
2021/01/16 07:17:27;;;;;;;38.20;13.73;;;0.00;99.70;;;;;;5031339;28;21022;-69
2021/01/16 07:19:56;;;;;;;36.93;15.37;;;0.00;99.70;;;;;;5031839;28;20508;-70
2021/01/16 07:22:31;;;;;;;37.13;14.40;;;0.00;99.70;;;;;;5031569;28;20472;-68
2021/01/16 07:24:59;;;;;;;36.60;13.93;;;0.00;99.70;;;;;;5031619;28;20475;-68
2021/01/16 07:27:27;;;;;;;40.07;14.53;;;0.10;99.70;;;;;;5031231;28;20449;-70
2021/01/16 07:29:56;;;;;;;35.00;15.50;;;0.30;99.70;;;;;;5031626;28;20480;-69
2021/01/16 07:32:37;;;;;;;43.00;16.90;;;0.10;99.70;;;;;;5031014;28;20965;-68
2021/01/16 07:35:04;;;;;;;40.37;14.60;;;0.10;99.70;;;;;;5031515;28;20894;-68
2021/01/16 07:37:31;;;;;;;38.33;15.87;;;0.10;99.70;;;;;;5031085;28;20441;-69
2021/01/16 07:39:58;;;;;;;39.60;16.50;;;0.20;99.70;;;;;;5031444;28;20579;-69
2021/01/16 07:42:27;;;;;;;37.23;14.53;;;0.20;99.70;;;;;;5031452;28;20808;-69
2021/01/16 07:45:07;;;;;;;44.17;17.17;;;0.10;99.70;;;;;;5031335;28;20464;-68
2021/01/16 07:47:39;;;;;;;39.87;14.87;;;0.00;99.70;;;;;;5023253;28;20445;-68
2021/01/16 07:50:15;;;;;;;38.87;15.37;;;0.00;99.70;;;;;;5031330;28;20441;-68
2021/01/16 07:52:52;;;;;;;41.37;16.00;;;0.10;99.70;;;;;;5031263;28;20819;-69
2021/01/16 07:55:19;;;;;;;39.87;15.73;;;0.10;99.70;;;;;;5031483;28;20484;-69
2021/01/16 07:57:49;;;;;;;40.67;14.93;;;0.20;99.70;;;;;;5029919;28;20861;-68
2021/01/16 08:00:17;;;;;;;36.40;14.43;;;0.30;99.70;;;;;;5031050;28;20623;-69
2021/01/16 08:03:01;;;;;;;42.80;15.77;;;0.30;99.70;;;;;;5030939;28;20448;-68
2021/01/16 08:05:38;;;;;;;39.97;15.10;;;0.30;99.70;;;;;;5030979;28;20491;-68
2021/01/16 08:08:28;;;;;;;43.97;16.53;;;0.20;99.70;;;;;;5030649;28;20441;-69
2021/01/16 08:10:55;;;;;;;40.93;15.23;;;0.10;99.70;;;;;;5026043;28;20519;-69
2021/01/16 08:13:24;;;;;;;37.23;14.97;;;0.20;99.70;;;;;;5030758;28;20449;-68
2021/01/16 08:15:51;;;;;;;37.10;14.37;;;0.10;99.70;;;;;;5030815;28;20465;-68
2021/01/16 08:18:19;;;;;;;41.10;15.23;;;0.20;99.70;;;;;;5030303;28;20480;-70
2021/01/16 08:20:47;;;;;;;38.20;15.50;;;0.20;99.70;;;;;;5030696;28;20476;-69
2021/01/16 08:23:23;;;;;;;42.17;16.77;;;0.30;99.70;;;;;;5030621;28;20447;-68
2021/01/16 08:25:50;;;;;;;41.03;16.40;;;0.20;99.70;;;;;;5030677;28;20504;-69
2021/01/16 08:28:27;;;;;;;41.33;16.60;;;0.20;99.70;;;;;;5030231;28;20452;-68
2021/01/16 08:30:53;;;;;;;41.37;16.67;;;0.20;99.70;;;;;;5030038;28;20443;-69
2021/01/16 08:33:32;;;;;;;35.70;14.73;;;0.20;99.70;;;;;;5030474;28;20965;-69
2021/01/16 08:36:13;;;;;;;41.67;16.20;;;0.30;99.70;;;;;;5030776;28;20547;-69
2021/01/16 08:38:40;;;;;;;43.77;16.07;;;0.20;99.70;;;;;;5030145;28;20455;-69
2021/01/16 08:41:06;;;;;;;38.60;15.93;;;0.20;99.70;;;;;;5030660;28;20521;-68
2021/01/16 08:43:38;;;;;;;46.77;17.37;;;0.10;99.70;;;;;;5030695;28;20479;-70
2021/01/16 08:46:13;;;;;;;44.07;17.00;;;0.10;99.70;;;;;;5030511;28;20464;-70
2021/01/16 08:48:40;;;;;;;43.67;17.20;;;0.20;99.70;;;;;;5023230;28;20865;-69
2021/01/16 08:51:25;;;;;;;42.03;17.80;;;0.10;99.70;;;;;;5030508;28;20437;-68
2021/01/16 08:54:05;;;;;;;40.00;15.90;;;0.10;99.70;;;;;;5030412;28;20731;-68
2021/01/16 08:56:31;;;;;;;37.53;14.93;;;0.10;99.70;;;;;;5022439;28;20469;-69
2021/01/16 08:58:58;;;;;;;38.17;16.03;;;0.10;99.70;;;;;;5029826;28;20506;-70
2021/01/16 09:01:24;;;;;;;40.57;16.00;;;0.10;99.70;;;;;;5030295;28;20900;-69
2021/01/16 09:04:14;;;;;;;43.50;17.90;;;0.20;99.70;;;;;;5030442;28;20840;-68
2021/01/16 09:06:40;;;;;;;44.80;17.00;;;0.10;99.70;;;;;;5030402;28;20448;-68
2021/01/16 09:09:07;;;;;;;43.63;17.80;;;0.10;99.70;;;;;;5033265;28;20551;-68
2021/01/16 09:11:33;;;;;;;46.77;17.83;;;0.20;99.70;;;;;;5034169;28;20444;-71
2021/01/16 09:14:02;;;;;;;39.07;16.53;;;0.20;99.70;;;;;;5034058;28;20460;-69
2021/01/16 09:16:30;;;;;;;41.10;16.83;;;0.10;99.70;;;;;;5032979;28;20460;-69
2021/01/16 09:18:57;;;;;;;40.20;16.00;;;0.20;99.70;;;;;;5022514;28;20445;-68
2021/01/16 09:21:24;;;;;;;42.07;16.67;;;0.10;99.70;;;;;;5033163;28;20484;-68
2021/01/16 09:23:51;;;;;;;40.30;16.67;;;0.30;99.70;;;;;;5032314;28;20452;-69
2021/01/16 09:26:20;;;;;;;39.43;16.57;;;0.30;99.70;;;;;;5034215;28;21004;-69
2021/01/16 09:28:49;;;;;;;34.53;15.30;;;0.30;99.70;;;;;;5033519;28;20510;-68
2021/01/16 09:31:21;;;;;;;40.73;16.43;;;0.50;99.70;;;;;;5033161;28;20444;-70
2021/01/16 09:33:49;;;;;;;43.00;16.57;;;0.70;99.70;;;;;;5033758;28;20455;-70
2021/01/16 09:36:43;;;;;;;41.00;16.30;;;0.50;99.70;;;;;;5033815;28;20471;-69
2021/01/16 09:39:19;;;;;;;36.70;15.50;;;0.40;99.70;;;;;;5033651;28;20437;-69
2021/01/16 09:41:46;;;;;;;38.90;15.50;;;0.50;99.70;;;;;;5033529;28;20538;-69
2021/01/16 09:44:13;;;;;;;40.63;16.20;;;0.80;99.70;;;;;;5033735;28;20528;-69
2021/01/16 09:46:41;;;;;;;41.57;17.53;;;0.70;99.70;;;;;;5033644;28;20445;-68
2021/01/16 09:49:09;;;;;;;39.70;16.00;;;0.70;99.70;;;;;;5033122;28;20463;-68
2021/01/16 09:51:37;;;;;;;42.50;16.33;;;0.50;99.70;;;;;;5033546;28;20445;-68
2021/01/16 09:54:14;;;;;;;38.43;16.03;;;0.40;99.70;;;;;;5033138;28;20969;-68
2021/01/16 09:56:45;;;;;;;46.60;16.90;;;0.30;99.70;;;;;;5033368;28;20960;-68
2021/01/16 09:59:20;;;;;;;37.87;16.33;;;0.20;99.70;;;;;;5033187;28;20457;-68
2021/01/16 10:02:07;;;;;;;36.17;15.57;;;0.40;99.70;;;;;;5033180;28;20483;-69
2021/01/16 10:04:38;;;;;;;34.90;16.50;;;0.40;99.70;;;;;;5033095;28;20813;-67
2021/01/16 10:07:08;;;;;;;38.90;15.43;;;0.50;99.70;;;;;;5032976;28;20459;-68
2021/01/16 10:09:43;;;;;;;34.47;14.30;;;0.60;99.70;;;;;;5033240;28;20487;-67
2021/01/16 10:12:25;;;;;;;33.17;13.60;;;0.30;99.70;;;;;;5028381;28;21003;-64
2021/01/16 10:14:53;;;;;;;31.77;14.20;;;0.30;99.70;;;;;;5020734;28;20476;-68
2021/01/16 10:17:21;;;;;;;38.37;14.93;;;0.30;99.70;;;;;;5032533;28;20439;-69
2021/01/16 10:19:48;;;;;;;34.87;14.53;;;0.40;99.70;;;;;;5031810;28;20524;-68
2021/01/16 10:22:19;;;;;;;37.03;14.80;;;0.40;99.70;;;;;;5032329;28;20476;-68
2021/01/16 10:24:46;;;;;;;36.00;14.80;;;0.50;99.70;;;;;;5033235;28;20540;-69
2021/01/16 10:27:32;;;;;;;30.97;14.60;;;0.80;99.70;;;;;;5029812;28;20464;-68
2021/01/16 10:30:05;;;;;;;38.03;14.23;;;0.70;99.70;;;;;;5025163;28;20641;-67
2021/01/16 10:32:32;;;;;;;31.53;13.37;;;0.80;99.70;;;;;;5016102;28;20539;-69
2021/01/16 10:34:59;;;;;;;31.07;13.50;;;0.70;99.70;;;;;;5023972;28;20471;-68
2021/01/16 10:37:28;;;;;;;32.53;14.03;;;0.70;99.70;;;;;;5020476;28;20448;-69
2021/01/16 10:39:56;;;;;;;27.13;12.20;;;1.00;99.70;;;;;;5026804;28;20917;-69
2021/01/16 10:42:22;;;;;;;26.67;11.53;;;0.90;99.70;;;;;;5013832;28;20610;-67
2021/01/16 10:44:51;;;;;;;29.17;12.27;;;1.00;99.70;;;;;;5025562;28;20464;-68
2021/01/16 10:47:33;;;;;;;27.57;12.97;;;1.20;99.70;;;;;;5027306;28;20447;-69
2021/01/16 10:50:08;;;;;;;31.90;13.03;;;1.20;99.70;;;;;;5028243;28;20455;-65
2021/01/16 10:52:35;;;;;;;29.83;12.10;;;1.40;99.70;;;;;;5023408;28;20530;-69
2021/01/16 10:55:03;;;;;;;25.73;11.40;;;1.30;99.70;;;;;;5030786;28;20546;-68
2021/01/16 10:57:44;;;;;;;27.50;13.30;;;1.50;99.70;;;;;;5028513;28;20457;-64
2021/01/16 11:00:13;;;;;;;26.63;11.83;;;1.60;99.70;;;;;;5031231;28;20443;-65
2021/01/16 11:02:42;;;;;;;22.90;10.57;;;1.30;99.70;;;;;;5031041;28;20946;-64
2021/01/16 11:05:24;;;;;;;23.67;11.03;;;1.30;99.70;;;;;;5030996;28;20472;-66
2021/01/16 11:07:51;;;;;;;24.00;10.73;;;1.50;99.70;;;;;;5031840;28;20884;-66
2021/01/16 11:10:28;;;;;;;21.70;10.37;;;1.50;99.70;;;;;;5022248;28;20453;-65
2021/01/16 11:13:16;;;;;;;21.10;10.10;;;1.80;99.70;;;;;;5016693;28;20456;-70
2021/01/16 11:15:43;;;;;;;18.63;9.17;;;1.50;99.70;;;;;;5017317;28;20473;-66
2021/01/16 11:18:32;;;;;;;25.63;11.17;;;1.50;99.70;;;;;;5018584;28;20453;-66
2021/01/16 11:21:04;;;;;;;20.87;9.97;;;1.20;99.70;;;;;;5025463;28;20844;-68
2021/01/16 11:24:08;;;;;;;21.00;10.30;;;1.20;99.70;;;;;;5013111;28;20587;-69
2021/01/16 11:26:46;;;;;;;17.27;8.50;;;1.50;99.70;;;;;;5025017;28;20467;-68
2021/01/16 11:29:18;;;;;;;26.80;12.60;;;1.70;99.70;;;;;;5012096;28;21012;-67
2021/01/16 11:31:48;;;;;;;32.53;14.07;;;1.30;99.70;;;;;;5025607;28;20576;-66
2021/01/16 11:34:23;;;;;;;31.10;13.73;;;1.30;99.70;;;;;;5030854;28;20444;-67
2021/01/16 11:36:54;;;;;;;40.90;15.37;;;1.50;99.70;;;;;;5030057;28;20486;-70
2021/01/16 11:39:56;;;;;;;31.07;13.10;;;1.40;99.70;;;;;;5030784;28;20952;-65
2021/01/16 11:42:22;;;;;;;41.50;19.27;;;1.40;99.70;;;;;;5016092;28;20495;-67
2021/01/16 11:44:57;;;;;;;50.80;24.00;;;1.50;99.70;;;;;;5030847;28;20567;-67
2021/01/16 11:47:24;;;;;;;33.47;14.70;;;1.60;99.70;;;;;;5030441;28;20448;-68
2021/01/16 11:49:51;;;;;;;34.47;17.50;;;1.60;99.70;;;;;;5030081;28;20449;-66
2021/01/16 11:52:17;;;;;;;34.90;15.43;;;1.40;99.70;;;;;;5030785;28;20441;-67
2021/01/16 11:54:44;;;;;;;30.87;14.33;;;1.50;99.70;;;;;;5030259;28;20508;-69
2021/01/16 11:57:11;;;;;;;35.77;13.97;;;1.60;99.70;;;;;;5029762;28;20444;-67
2021/01/16 11:59:40;;;;;;;34.50;13.43;;;1.50;99.70;;;;;;5030174;28;20440;-67
2021/01/16 12:02:11;;;;;;;30.93;13.23;;;1.50;99.70;;;;;;5030096;28;20567;-67
2021/01/16 12:04:41;;;;;;;34.20;14.53;;;2.00;99.70;;;;;;5030272;28;20842;-68
2021/01/16 12:07:09;;;;;;;32.20;14.40;;;1.60;99.70;;;;;;5029625;28;20449;-67
2021/01/16 12:09:38;;;;;;;35.30;14.10;;;1.50;99.70;;;;;;5028671;28;20473;-68
2021/01/16 12:12:07;;;;;;;30.07;13.60;;;1.30;99.70;;;;;;5030190;28;20498;-67
2021/01/16 12:14:35;;;;;;;33.07;14.80;;;1.30;99.70;;;;;;5028405;28;20499;-68
2021/01/16 12:17:05;;;;;;;33.93;14.70;;;1.30;99.70;;;;;;5029614;28;20543;-69
2021/01/16 12:19:33;;;;;;;33.73;14.60;;;1.40;99.70;;;;;;5029975;28;20583;-67
2021/01/16 12:22:03;;;;;;;34.17;15.97;;;1.60;99.70;;;;;;5028841;28;20602;-69
2021/01/16 12:24:30;;;;;;;39.50;15.60;;;1.50;99.70;;;;;;5029999;28;20460;-67
2021/01/16 12:27:00;;;;;;;32.70;15.13;;;1.50;99.70;;;;;;5028906;28;20448;-67
2021/01/16 12:29:39;;;;;;;32.77;15.60;;;1.40;99.70;;;;;;5027081;28;20454;-67
2021/01/16 12:32:07;;;;;;;46.10;20.40;;;1.40;99.70;;;;;;5009338;28;20532;-67
2021/01/16 12:34:34;;;;;;;32.97;15.23;;;1.30;99.70;;;;;;5002215;28;20473;-68
2021/01/16 12:37:01;;;;;;;33.93;15.00;;;1.10;99.70;;;;;;5009145;28;20448;-66
2021/01/16 12:39:29;;;;;;;31.23;15.03;;;1.20;99.70;;;;;;4994415;28;20520;-68
2021/01/16 12:41:59;;;;;;;34.77;16.00;;;1.50;99.70;;;;;;4971061;28;20494;-68
2021/01/16 12:44:26;;;;;;;27.73;12.87;;;1.40;99.70;;;;;;5004071;28;20538;-69
2021/01/16 12:46:52;;;;;;;33.33;14.93;;;1.20;99.70;;;;;;4987024;28;20454;-66
2021/01/16 12:49:19;;;;;;;36.40;15.97;;;1.20;99.70;;;;;;4987555;28;20960;-67